createdAt,value
2023-02-14T00:00:22.828Z,20.88
2023-02-14T00:02:53.585Z,20.87
2023-02-14T00:05:24.017Z,20.87
2023-02-14T00:07:55.151Z,20.86
2023-02-14T00:10:31.529Z,20.84
2023-02-14T00:13:02.957Z,20.81
2023-02-14T00:15:30.128Z,20.82
2023-02-14T00:18:01.562Z,20.80
2023-02-14T00:20:35.203Z,20.78
2023-02-14T00:23:04.608Z,20.77
2023-02-14T00:25:37.839Z,20.77
2023-02-14T00:28:11.507Z,20.76
2023-02-14T00:30:42.405Z,20.74
2023-02-14T00:33:14.494Z,20.73
2023-02-14T00:35:47.883Z,20.73
2023-02-14T00:38:18.162Z,20.71
2023-02-14T00:40:48.407Z,20.73
2023-02-14T00:43:21.752Z,20.70
2023-02-14T00:45:50.201Z,20.69
2023-02-14T00:48:20.128Z,20.69
2023-02-14T00:50:49.990Z,20.68
2023-02-14T00:53:20.881Z,20.68
2023-02-14T00:55:48.041Z,20.67
2023-02-14T00:58:18.184Z,20.67
2023-02-14T01:00:51.738Z,20.65
2023-02-14T01:03:20.277Z,20.63
2023-02-14T01:05:56.589Z,20.63
2023-02-14T01:08:27.892Z,20.61
2023-02-14T01:11:17.385Z,20.59
2023-02-14T01:13:46.492Z,20.58
2023-02-14T01:16:21.823Z,20.58
2023-02-14T01:18:55.558Z,20.56
2023-02-14T01:21:30.807Z,20.55
2023-02-14T01:24:01.018Z,20.55
2023-02-14T01:26:31.940Z,20.54
2023-02-14T01:29:02.239Z,20.53
2023-02-14T01:31:39.641Z,20.53
2023-02-14T01:34:07.163Z,20.53
2023-02-14T01:36:38.187Z,20.52
2023-02-14T01:39:08.834Z,20.50
2023-02-14T01:41:45.010Z,20.48
2023-02-14T01:44:18.496Z,20.47
2023-02-14T01:46:48.867Z,20.46
2023-02-14T01:49:26.055Z,20.45
2023-02-14T01:52:20.586Z,20.45
2023-02-14T01:55:02.083Z,20.43
2023-02-14T01:57:36.260Z,20.42
2023-02-14T02:00:06.969Z,20.42
2023-02-14T02:02:37.473Z,20.41
2023-02-14T02:05:05.603Z,20.40
2023-02-14T02:07:37.166Z,20.39
2023-02-14T02:10:11.798Z,20.38
2023-02-14T02:12:42.755Z,20.37
2023-02-14T02:15:13.470Z,20.37
2023-02-14T02:17:59.100Z,20.36
2023-02-14T02:20:44.236Z,20.35
2023-02-14T02:23:29.450Z,20.35
2023-02-14T02:26:48.877Z,20.32
2023-02-14T02:29:37.416Z,20.33
2023-02-14T02:32:31.607Z,20.31
2023-02-14T02:35:16.462Z,20.30
2023-02-14T02:37:50.581Z,20.31
2023-02-14T02:40:43.917Z,20.29
2023-02-14T02:43:51.787Z,20.28
2023-02-14T02:46:32.657Z,20.27
2023-02-14T02:49:36.127Z,20.26
2023-02-14T02:52:21.492Z,20.24
2023-02-14T02:55:08.769Z,20.24
2023-02-14T02:57:40.869Z,20.24
2023-02-14T03:00:15.074Z,20.23
2023-02-14T03:02:53.575Z,20.22
2023-02-14T03:05:24.896Z,20.21
2023-02-14T03:07:56.358Z,20.21
2023-02-14T03:10:31.491Z,20.19
2023-02-14T03:13:28.606Z,20.19
2023-02-14T03:16:01.554Z,20.18
2023-02-14T03:18:47.389Z,20.17
2023-02-14T03:21:23.946Z,20.18
2023-02-14T03:24:17.064Z,20.15
2023-02-14T03:26:57.635Z,20.15
2023-02-14T03:29:44.166Z,20.13
2023-02-14T03:32:42.693Z,20.13
2023-02-14T03:35:38.304Z,20.10
2023-02-14T03:38:27.318Z,20.09
2023-02-14T03:41:00.893Z,20.07
2023-02-14T03:43:39.613Z,20.07
2023-02-14T03:46:26.283Z,20.05
2023-02-14T03:48:57.486Z,20.04
2023-02-14T03:51:33.953Z,20.04
2023-02-14T03:54:09.939Z,20.03
2023-02-14T03:56:47.274Z,20.03
2023-02-14T03:59:22.824Z,20.03
2023-02-14T04:01:56.449Z,20.01
2023-02-14T04:04:28.058Z,20.01
2023-02-14T04:06:55.849Z,19.99
2023-02-14T04:09:23.327Z,20.01
2023-02-14T04:11:53.564Z,20.00
2023-02-14T04:14:23.721Z,19.98
2023-02-14T04:16:51.088Z,19.97
2023-02-14T04:19:18.064Z,19.96
2023-02-14T04:21:47.575Z,19.96
2023-02-14T04:24:14.699Z,19.95
2023-02-14T04:26:48.267Z,19.94
2023-02-14T04:29:15.364Z,19.93
2023-02-14T04:31:45.961Z,19.93
2023-02-14T04:34:16.567Z,19.92
2023-02-14T04:36:46.940Z,19.91
2023-02-14T04:39:17.563Z,19.90
2023-02-14T04:41:44.892Z,19.92
2023-02-14T04:44:15.164Z,19.88
2023-02-14T04:46:44.837Z,19.88
2023-02-14T04:49:12.298Z,19.89
2023-02-14T04:51:39.601Z,19.87
2023-02-14T04:54:15.546Z,19.87
2023-02-14T04:56:42.997Z,19.85
2023-02-14T04:59:13.201Z,19.85
2023-02-14T05:01:43.686Z,19.84
2023-02-14T05:04:19.036Z,19.84
2023-02-14T05:06:50.239Z,19.82
2023-02-14T05:09:17.791Z,19.82
2023-02-14T05:11:50.847Z,19.81
2023-02-14T05:14:21.370Z,19.80
2023-02-14T05:16:49.209Z,19.81
2023-02-14T05:19:19.191Z,19.80
2023-02-14T05:21:49.186Z,19.80
2023-02-14T05:24:19.599Z,19.79
2023-02-14T05:26:50.859Z,19.78
2023-02-14T05:29:24.534Z,19.78
2023-02-14T05:31:55.074Z,19.79
2023-02-14T05:34:28.540Z,19.78
2023-02-14T05:37:02.270Z,19.80
2023-02-14T05:39:30.346Z,19.80
2023-02-14T05:42:06.429Z,19.81
2023-02-14T05:44:35.947Z,19.77
2023-02-14T05:47:08.699Z,19.75
2023-02-14T05:49:39.036Z,19.65
2023-02-14T05:52:09.189Z,19.61
2023-02-14T05:54:39.743Z,19.57
2023-02-14T05:57:12.802Z,19.52
2023-02-14T06:02:55.286Z,19.52
2023-02-14T06:05:29.946Z,19.54
2023-02-14T06:08:02.572Z,19.57
2023-02-14T06:10:29.883Z,19.61
2023-02-14T06:12:57.368Z,19.64
2023-02-14T06:15:30.848Z,19.66
2023-02-14T06:18:04.272Z,19.67
2023-02-14T06:20:35.569Z,19.70
2023-02-14T06:23:08.805Z,19.73
2023-02-14T06:25:39.908Z,19.73
2023-02-14T06:28:09.676Z,19.73
2023-02-14T06:30:36.849Z,19.76
2023-02-14T06:33:04.108Z,19.77
2023-02-14T06:35:34.268Z,19.79
2023-02-14T06:38:07.856Z,19.80
2023-02-14T06:40:41.230Z,19.80
2023-02-14T06:43:17.682Z,19.81
2023-02-14T06:45:49.011Z,19.82
2023-02-14T06:48:19.039Z,19.83
2023-02-14T06:50:51.947Z,19.86
2023-02-14T06:53:27.418Z,19.85
2023-02-14T06:55:59.838Z,19.87
2023-02-14T06:58:27.788Z,19.89
2023-02-14T07:01:03.454Z,19.91
2023-02-14T07:03:36.473Z,19.92
2023-02-14T07:06:12.713Z,19.94
2023-02-14T07:08:41.038Z,19.97
2023-02-14T07:11:13.622Z,19.98
2023-02-14T07:13:43.737Z,20.01
2023-02-14T07:16:14.572Z,20.04
2023-02-14T07:18:45.074Z,20.06
2023-02-14T07:21:14.659Z,20.10
2023-02-14T07:23:44.392Z,20.12
2023-02-14T07:26:18.002Z,20.17
2023-02-14T07:28:49.503Z,20.21
2023-02-14T07:31:21.047Z,20.23
2023-02-14T07:33:47.919Z,20.26
2023-02-14T07:36:19.908Z,20.29
2023-02-14T07:38:47.004Z,20.31
2023-02-14T07:41:16.390Z,20.35
2023-02-14T07:43:47.164Z,20.38
2023-02-14T07:46:13.998Z,20.40
2023-02-14T07:48:46.821Z,20.44
2023-02-14T07:51:25.213Z,20.43
2023-02-14T07:53:52.627Z,20.46
2023-02-14T07:56:19.915Z,20.47
2023-02-14T07:58:47.043Z,20.47
2023-02-14T08:01:18.834Z,20.49
2023-02-14T08:03:49.299Z,20.51
2023-02-14T08:06:20.296Z,20.53
2023-02-14T08:08:48.128Z,20.55
2023-02-14T08:11:18.150Z,20.57
2023-02-14T08:13:47.686Z,20.58
2023-02-14T08:16:17.650Z,20.61
2023-02-14T08:18:47.806Z,20.63
2023-02-14T08:21:21.353Z,20.65
2023-02-14T08:23:51.502Z,20.66
2023-02-14T08:26:20.978Z,20.68
2023-02-14T08:28:50.416Z,20.71
2023-02-14T08:31:35.243Z,20.74
2023-02-14T08:34:04.600Z,20.74
2023-02-14T08:36:35.296Z,20.77
2023-02-14T08:39:08.051Z,20.78
2023-02-14T08:41:40.375Z,20.80
2023-02-14T08:44:10.281Z,20.84
2023-02-14T08:46:43.649Z,20.82
2023-02-14T08:49:10.810Z,20.85
2023-02-14T08:51:40.652Z,20.86
2023-02-14T08:54:07.513Z,20.86
2023-02-14T08:56:34.380Z,20.86
2023-02-14T08:59:01.284Z,20.87
2023-02-14T09:01:31.924Z,20.85
2023-02-14T09:04:01.387Z,20.87
2023-02-14T09:06:30.949Z,20.87
2023-02-14T09:09:03.445Z,20.87
2023-02-14T09:11:33.435Z,20.88
2023-02-14T09:14:00.171Z,20.89
2023-02-14T09:16:30.975Z,20.90
2023-02-14T09:19:00.449Z,20.92
2023-02-14T09:21:30.860Z,20.92
2023-02-14T09:24:01.500Z,20.92
2023-02-14T09:26:31.517Z,20.94
2023-02-14T09:29:01.444Z,20.95
2023-02-14T09:31:34.466Z,20.95
2023-02-14T09:34:06.733Z,20.95
2023-02-14T09:36:33.609Z,20.97
2023-02-14T09:39:03.378Z,20.96
2023-02-14T09:41:46.390Z,20.97
2023-02-14T09:44:45.213Z,20.99
2023-02-14T09:47:24.199Z,21.00
2023-02-14T09:49:52.600Z,21.00
2023-02-14T09:52:27.779Z,21.02
2023-02-14T09:55:13.411Z,21.00
2023-02-14T09:58:02.820Z,21.00
2023-02-14T10:00:41.468Z,20.99
2023-02-14T10:03:35.183Z,20.99
2023-02-14T10:06:29.138Z,20.99
2023-02-14T10:09:26.478Z,20.98
2023-02-14T10:11:59.464Z,20.99
2023-02-14T10:14:32.386Z,21.00
2023-02-14T10:17:28.981Z,21.00
2023-02-14T10:20:04.766Z,21.02
2023-02-14T10:22:46.838Z,21.01
2023-02-14T10:25:27.425Z,21.02
2023-02-14T10:28:01.524Z,21.03
2023-02-14T10:30:39.734Z,21.02
2023-02-14T10:33:26.727Z,21.02
2023-02-14T10:36:05.848Z,21.02
2023-02-14T10:38:55.399Z,21.02
2023-02-14T10:41:50.086Z,21.00
2023-02-14T10:44:56.750Z,21.00
2023-02-14T10:47:38.450Z,21.01
2023-02-14T10:50:16.706Z,21.02
2023-02-14T10:52:55.958Z,21.01
2023-02-14T10:55:50.945Z,21.02
2023-02-14T10:58:26.252Z,21.01
2023-02-14T11:01:03.000Z,21.01
2023-02-14T11:03:44.313Z,21.00
2023-02-14T11:06:16.584Z,21.00
2023-02-14T11:08:53.787Z,21.01
2023-02-14T11:11:35.280Z,21.01
2023-02-14T11:14:36.718Z,21.00
2023-02-14T11:17:30.149Z,20.99
2023-02-14T11:20:02.049Z,21.00
2023-02-14T11:22:37.023Z,20.99
2023-02-14T11:25:26.288Z,20.96
2023-02-14T11:28:08.437Z,20.95
2023-02-14T11:30:46.930Z,20.95
2023-02-14T11:33:43.283Z,20.94
2023-02-14T11:36:20.297Z,20.92
2023-02-14T11:39:28.594Z,20.92
2023-02-14T11:42:05.592Z,20.91
2023-02-14T11:44:36.665Z,20.92
2023-02-14T11:47:27.548Z,20.91
2023-02-14T11:50:09.870Z,20.90
2023-02-14T11:52:58.955Z,20.90
2023-02-14T11:55:39.802Z,20.87
2023-02-14T11:58:09.631Z,20.88
2023-02-14T12:00:39.844Z,20.89
2023-02-14T12:03:09.783Z,20.88
2023-02-14T12:05:49.525Z,20.90
2023-02-14T12:08:28.011Z,20.92
2023-02-14T12:11:18.413Z,20.91
2023-02-14T12:13:56.640Z,20.93
2023-02-14T12:16:39.107Z,20.94
2023-02-14T12:19:24.478Z,20.94
2023-02-14T12:22:03.033Z,20.94
2023-02-14T12:24:38.381Z,20.94
2023-02-14T12:27:18.924Z,20.95
2023-02-14T12:29:59.785Z,20.95
2023-02-14T12:32:29.774Z,20.95
2023-02-14T12:35:28.302Z,20.95
2023-02-14T12:38:34.124Z,20.93
2023-02-14T12:41:22.162Z,20.93
2023-02-14T12:43:53.476Z,20.92
2023-02-14T12:47:01.262Z,20.90
2023-02-14T12:49:54.750Z,20.89
2023-02-14T12:52:30.377Z,20.90
2023-02-14T12:55:42.390Z,20.89
2023-02-14T12:58:18.290Z,20.90
2023-02-14T13:01:09.780Z,20.89
2023-02-14T13:04:07.489Z,20.88
2023-02-14T13:06:39.925Z,20.87
2023-02-14T13:09:16.011Z,20.84
2023-02-14T13:12:27.984Z,20.84
2023-02-14T13:15:38.001Z,20.82
2023-02-14T13:18:31.027Z,20.84
2023-02-14T13:21:04.891Z,20.87
2023-02-14T13:23:45.092Z,20.89
2023-02-14T13:26:20.621Z,20.90
2023-02-14T13:28:56.899Z,20.92
2023-02-14T13:31:24.124Z,20.92
2023-02-14T13:34:02.029Z,20.93
2023-02-14T13:36:36.071Z,20.93
2023-02-14T13:39:04.611Z,20.94
2023-02-14T13:41:32.309Z,20.96
2023-02-14T13:44:02.937Z,20.96
2023-02-14T13:46:36.219Z,20.98
2023-02-14T13:49:24.317Z,20.99
2023-02-14T13:51:59.557Z,20.99
2023-02-14T13:54:46.716Z,21.01
2023-02-14T13:57:39.050Z,21.02
2023-02-14T14:00:40.042Z,21.03
2023-02-14T14:03:27.842Z,21.04
2023-02-14T14:06:08.904Z,21.04
2023-02-14T14:08:50.549Z,21.06
2023-02-14T14:11:26.089Z,21.06
2023-02-14T14:14:04.149Z,21.06
2023-02-14T14:16:36.168Z,21.06
2023-02-14T14:19:21.229Z,21.06
2023-02-14T14:22:07.155Z,21.04
2023-02-14T14:24:37.460Z,21.02
2023-02-14T14:27:07.684Z,21.01
2023-02-14T14:29:42.979Z,21.00
2023-02-14T14:32:18.398Z,21.01
2023-02-14T14:34:56.093Z,21.02
2023-02-14T14:37:30.811Z,21.02
2023-02-14T14:40:00.974Z,21.03
2023-02-14T14:42:38.031Z,21.04
2023-02-14T14:45:09.474Z,21.02
2023-02-14T14:47:42.887Z,21.01
2023-02-14T14:50:24.446Z,20.97
2023-02-14T14:53:00.321Z,20.90
2023-02-14T14:55:33.152Z,20.88
2023-02-14T14:58:24.862Z,20.88
2023-02-14T15:00:51.996Z,20.90
2023-02-14T15:03:22.944Z,20.92
2023-02-14T15:05:50.848Z,20.94
2023-02-14T15:08:22.282Z,20.94
2023-02-14T15:11:11.951Z,20.95
2023-02-14T15:13:46.545Z,20.94
2023-02-14T15:16:18.638Z,20.95
2023-02-14T15:18:46.269Z,20.96
2023-02-14T15:21:16.821Z,20.95
2023-02-14T15:23:45.874Z,20.95
2023-02-14T15:26:29.842Z,20.94
2023-02-14T15:29:05.698Z,20.94
2023-02-14T15:31:40.784Z,20.94
2023-02-14T15:34:12.385Z,20.93
2023-02-14T15:36:45.076Z,20.91
2023-02-14T15:39:17.068Z,20.91
2023-02-14T15:41:47.059Z,20.90
2023-02-14T15:44:22.463Z,20.89
2023-02-14T15:47:03.047Z,20.87
2023-02-14T15:49:39.970Z,20.88
2023-02-14T15:52:16.007Z,20.86
2023-02-14T15:54:45.826Z,20.85
2023-02-14T15:57:26.274Z,20.83
2023-02-14T15:59:53.584Z,20.83
2023-02-14T16:02:37.163Z,20.82
2023-02-14T16:05:20.474Z,20.80
2023-02-14T16:07:56.272Z,20.79
2023-02-14T16:10:33.203Z,20.79
2023-02-14T16:13:14.890Z,20.77
2023-02-14T16:15:59.981Z,20.73
2023-02-14T16:18:40.511Z,20.68
2023-02-14T16:21:21.194Z,20.67
2023-02-14T16:24:08.504Z,20.68
2023-02-14T16:26:42.836Z,20.67
2023-02-14T16:29:15.196Z,20.69
2023-02-14T16:32:14.649Z,20.69
2023-02-14T16:35:29.724Z,20.69
2023-02-14T16:37:59.563Z,20.64
2023-02-14T16:40:28.154Z,20.64
2023-02-14T16:42:54.912Z,20.64
2023-02-14T16:45:27.659Z,20.66
2023-02-14T16:47:59.003Z,20.65
2023-02-14T16:50:28.896Z,20.65
2023-02-14T16:52:58.695Z,20.66
2023-02-14T16:55:29.271Z,20.66
2023-02-14T16:57:57.754Z,20.68
2023-02-14T17:00:24.562Z,20.68
2023-02-14T17:02:51.338Z,20.68
2023-02-14T17:05:18.460Z,20.68
2023-02-14T17:07:48.926Z,20.69
2023-02-14T17:10:18.409Z,20.69
2023-02-14T17:12:49.765Z,20.68
2023-02-14T17:15:21.900Z,20.68
2023-02-14T17:17:50.183Z,20.68
2023-02-14T17:20:17.762Z,20.67
2023-02-14T17:22:49.661Z,20.66
2023-02-14T17:25:22.701Z,20.67
2023-02-14T17:27:50.347Z,20.66
2023-02-14T17:30:18.538Z,20.65
2023-02-14T17:32:50.484Z,20.64
2023-02-14T17:38:40.734Z,20.62
2023-02-14T17:41:45.378Z,20.62
2023-02-14T17:44:12.807Z,20.57
2023-02-14T17:46:50.294Z,20.52
2023-02-14T17:49:59.790Z,20.48
2023-02-14T17:52:30.339Z,20.47
2023-02-14T17:55:06.005Z,20.47
2023-02-14T17:57:39.441Z,20.47
2023-02-14T18:00:12.207Z,20.51
2023-02-14T18:05:29.066Z,20.52
2023-02-14T18:08:11.516Z,20.55
2023-02-14T18:10:42.747Z,20.55
2023-02-14T18:13:24.145Z,20.57
2023-02-14T18:15:54.140Z,20.58
2023-02-14T18:18:30.931Z,20.60
2023-02-14T18:21:03.174Z,20.62
2023-02-14T18:23:34.768Z,20.63
2023-02-14T18:26:11.285Z,20.64
2023-02-14T18:32:07.179Z,20.67
2023-02-14T18:34:52.263Z,20.66
2023-02-14T18:37:38.457Z,20.67
2023-02-14T18:40:22.368Z,20.67
2023-02-14T18:43:12.493Z,20.64
2023-02-14T18:46:12.292Z,20.64
2023-02-14T18:48:59.253Z,20.64
2023-02-14T18:51:53.459Z,20.64
2023-02-14T18:54:37.895Z,20.63
2023-02-14T18:57:13.112Z,20.63
2023-02-14T18:59:40.281Z,20.63
2023-02-14T19:02:16.870Z,20.64
2023-02-14T19:04:53.897Z,20.63
2023-02-14T19:07:40.070Z,20.64
2023-02-14T19:10:27.914Z,20.64
2023-02-14T19:13:34.993Z,20.66
2023-02-14T19:45:01.793Z,20.77
2023-02-14T20:01:00.015Z,20.81
2023-02-14T20:07:29.897Z,20.82
2023-02-14T20:10:21.659Z,20.82
2023-02-14T20:13:03.322Z,20.85
2023-02-14T20:16:23.427Z,20.89
2023-02-14T20:19:25.922Z,20.93
2023-02-14T20:22:07.854Z,20.97
2023-02-14T20:25:08.191Z,20.99
2023-02-14T20:27:41.904Z,21.01
2023-02-14T20:30:25.260Z,21.05
2023-02-14T20:33:15.646Z,21.08
2023-02-14T20:36:09.603Z,21.09
2023-02-14T20:39:18.326Z,21.13
2023-02-14T20:42:19.509Z,21.16
2023-02-14T20:48:55.960Z,21.22
2023-02-14T20:51:35.973Z,21.25
2023-02-14T20:54:17.974Z,21.28
2023-02-14T20:57:04.932Z,21.30
2023-02-14T21:06:33.314Z,21.37
2023-02-14T21:09:56.027Z,21.37
2023-02-14T21:12:41.346Z,21.39
2023-02-14T21:15:18.796Z,21.41
2023-02-14T21:18:00.646Z,21.43
2023-02-14T21:21:20.697Z,21.42
2023-02-14T21:24:06.751Z,21.42
2023-02-14T21:26:40.343Z,21.44
2023-02-14T21:29:30.752Z,21.45
2023-02-14T21:32:09.204Z,21.43
2023-02-14T21:34:57.174Z,21.42
2023-02-14T21:37:29.252Z,21.42
2023-02-14T21:40:19.645Z,21.42
2023-02-14T21:43:03.374Z,21.40
2023-02-14T21:45:53.258Z,21.38
2023-02-14T21:48:28.763Z,21.36
2023-02-14T21:51:11.726Z,21.34
2023-02-14T21:53:57.303Z,21.31
2023-02-14T21:57:07.655Z,21.31
2023-02-14T21:59:58.566Z,21.29
2023-02-14T22:02:39.286Z,21.25
2023-02-14T22:05:33.691Z,21.25
2023-02-14T22:08:15.944Z,21.23
2023-02-14T22:14:02.442Z,21.20
2023-02-14T22:16:43.206Z,21.18
2023-02-14T22:19:15.948Z,21.16
2023-02-14T22:21:44.707Z,21.16
2023-02-14T22:24:33.676Z,21.16
2023-02-14T22:27:03.721Z,21.13
2023-02-14T22:29:56.759Z,21.12
2023-02-14T22:32:46.786Z,21.09
2023-02-14T22:35:35.112Z,21.10
2023-02-14T22:38:17.703Z,21.08
2023-02-14T22:41:06.558Z,21.06
2023-02-14T22:43:43.549Z,21.05
2023-02-14T22:46:22.566Z,21.04
2023-02-14T22:49:08.466Z,21.03
2023-02-14T22:52:05.355Z,21.00
2023-02-14T22:54:41.670Z,21.00
2023-02-14T22:57:24.948Z,21.00
2023-02-14T23:00:05.155Z,20.98
2023-02-14T23:02:54.980Z,20.98
2023-02-14T23:05:26.164Z,20.96
2023-02-14T23:08:17.258Z,20.97
2023-02-14T23:11:09.130Z,20.94
2023-02-14T23:13:38.913Z,20.93
2023-02-14T23:16:10.680Z,20.93
2023-02-14T23:18:56.550Z,20.92
2023-02-14T23:21:36.465Z,20.90
2023-02-14T23:24:46.604Z,20.90
2023-02-14T23:27:30.246Z,20.88
2023-02-14T23:30:21.835Z,20.88
2023-02-14T23:33:03.756Z,20.88
2023-02-14T23:35:37.617Z,20.87
2023-02-14T23:38:09.319Z,20.86
2023-02-14T23:40:37.511Z,20.86
2023-02-14T23:43:11.871Z,20.85
2023-02-14T23:45:51.693Z,20.84
2023-02-14T23:48:23.190Z,20.83
2023-02-14T23:50:52.898Z,20.82
2023-02-14T23:53:24.101Z,20.81
2023-02-14T23:56:10.922Z,20.81
2023-02-14T23:58:40.205Z,20.79
